createdAt,value
2022-10-22T00:01:27.541Z,5.46
2022-10-22T00:03:56.444Z,5.47
2022-10-22T00:06:23.868Z,5.64
2022-10-22T00:08:53.738Z,5.64
2022-10-22T00:11:21.754Z,5.45
2022-10-22T00:13:53.379Z,5.59
2022-10-22T00:16:41.086Z,5.46
2022-10-22T00:19:10.710Z,5.44
2022-10-22T00:21:41.629Z,5.59
2022-10-22T00:24:22.123Z,5.61
2022-10-22T00:26:58.783Z,5.58
2022-10-22T00:29:26.172Z,5.35
2022-10-22T00:31:56.741Z,5.43
2022-10-22T00:34:25.108Z,5.49
2022-10-22T00:37:02.396Z,5.53
2022-10-22T00:39:30.262Z,5.51
2022-10-22T00:42:00.717Z,5.71
2022-10-22T00:45:05.723Z,5.70
2022-10-22T00:47:59.968Z,5.50
2022-10-22T00:50:52.788Z,5.56
2022-10-22T00:53:24.157Z,5.58
2022-10-22T00:55:54.637Z,5.59
2022-10-22T00:58:27.556Z,5.57
2022-10-22T01:00:56.876Z,5.56
2022-10-22T01:03:24.617Z,5.76
2022-10-22T01:06:02.505Z,5.69
2022-10-22T01:08:50.490Z,5.79
2022-10-22T01:11:31.231Z,5.66
2022-10-22T01:14:15.905Z,5.57
2022-10-22T01:17:08.667Z,5.52
2022-10-22T01:20:07.430Z,5.66
2022-10-22T01:22:46.868Z,5.78
2022-10-22T01:25:21.696Z,5.67
2022-10-22T01:28:10.924Z,5.79
2022-10-22T01:30:40.888Z,5.67
2022-10-22T01:33:13.777Z,5.49
2022-10-22T01:35:47.750Z,5.50
2022-10-22T01:38:19.736Z,5.58
2022-10-22T01:40:51.510Z,5.60
2022-10-22T01:43:23.513Z,5.56
2022-10-22T01:45:54.455Z,5.66
2022-10-22T01:49:01.300Z,5.86
2022-10-22T01:51:47.040Z,5.88
2022-10-22T01:54:23.440Z,5.85
2022-10-22T01:57:19.315Z,5.81
2022-10-22T02:00:17.674Z,5.72
2022-10-22T02:03:05.985Z,5.80
2022-10-22T02:05:46.353Z,5.57
2022-10-22T02:08:30.794Z,5.68
2022-10-22T02:11:00.755Z,5.60
2022-10-22T02:13:35.201Z,5.78
2022-10-22T02:16:04.786Z,5.82
2022-10-22T02:18:40.056Z,5.67
2022-10-22T02:21:11.259Z,5.73
2022-10-22T02:23:43.447Z,5.66
2022-10-22T02:26:19.915Z,5.56
2022-10-22T02:29:27.945Z,5.70
2022-10-22T02:32:03.319Z,5.68
2022-10-22T02:34:32.788Z,5.55
2022-10-22T02:37:02.872Z,5.66
2022-10-22T02:39:32.186Z,5.56
2022-10-22T02:42:03.277Z,5.69
2022-10-22T02:44:33.559Z,5.52
2022-10-22T02:47:01.032Z,5.79
2022-10-22T02:49:28.756Z,5.66
2022-10-22T02:51:56.310Z,5.74
2022-10-22T02:54:26.944Z,5.76
2022-10-22T02:56:54.224Z,5.70
2022-10-22T02:59:21.686Z,5.66
2022-10-22T03:01:53.523Z,5.77
2022-10-22T03:04:20.975Z,5.66
2022-10-22T03:06:49.276Z,5.55
2022-10-22T03:09:21.323Z,5.68
2022-10-22T03:11:54.043Z,5.67
2022-10-22T03:14:22.519Z,5.73
2022-10-22T03:16:50.774Z,5.90
2022-10-22T03:19:18.089Z,5.87
2022-10-22T03:21:53.863Z,5.85
2022-10-22T03:24:29.344Z,5.70
2022-10-22T03:26:56.804Z,5.69
2022-10-22T03:29:27.053Z,5.82
2022-10-22T03:32:15.755Z,5.74
2022-10-22T03:34:50.549Z,5.67
2022-10-22T03:37:57.943Z,5.73
2022-10-22T03:40:59.034Z,5.61
2022-10-22T03:44:19.031Z,5.54
2022-10-22T03:47:32.112Z,5.66
2022-10-22T03:50:31.123Z,5.69
2022-10-22T03:54:04.548Z,5.59
2022-10-22T03:56:14.375Z,5.67
2022-10-22T03:59:02.247Z,5.77
2022-10-22T04:01:34.286Z,5.65
2022-10-22T04:04:03.260Z,5.79
2022-10-22T04:06:33.346Z,5.62
2022-10-22T04:09:05.538Z,5.66
2022-10-22T04:11:36.934Z,5.76
2022-10-22T04:14:04.165Z,5.68
2022-10-22T04:16:32.942Z,5.64
2022-10-22T04:19:00.294Z,5.74
2022-10-22T04:21:28.984Z,5.59
2022-10-22T04:23:56.339Z,5.65
2022-10-22T04:26:29.178Z,5.70
2022-10-22T04:28:56.468Z,5.81
2022-10-22T04:31:26.624Z,5.78
2022-10-22T04:34:00.119Z,5.82
2022-10-22T04:36:32.745Z,5.78
2022-10-22T04:39:01.764Z,5.88
2022-10-22T04:41:38.923Z,5.71
2022-10-22T04:44:12.269Z,5.75
2022-10-22T04:46:46.029Z,5.77
2022-10-22T04:49:13.900Z,5.75
2022-10-22T04:52:32.647Z,5.94
2022-10-22T04:55:01.115Z,5.90
2022-10-22T04:57:32.562Z,5.90
2022-10-22T04:59:59.947Z,5.90
2022-10-22T05:02:29.840Z,6.00
2022-10-22T05:04:57.352Z,5.87
2022-10-22T05:07:26.039Z,5.86
2022-10-22T05:09:56.592Z,5.84
2022-10-22T05:12:26.338Z,6.01
2022-10-22T05:14:56.987Z,5.99
2022-10-22T05:17:24.608Z,6.07
2022-10-22T05:19:55.266Z,6.01
2022-10-22T05:23:14.136Z,6.12
2022-10-22T05:25:41.503Z,6.09
2022-10-22T05:28:08.872Z,6.01
2022-10-22T05:35:20.376Z,6.13
2022-10-22T05:37:47.642Z,6.16
2022-10-22T05:40:26.373Z,6.31
2022-10-22T05:42:55.603Z,6.32
2022-10-22T05:45:22.875Z,6.33
2022-10-22T05:47:50.326Z,6.40
2022-10-22T05:55:09.325Z,6.39
2022-10-22T06:00:42.812Z,6.36
2022-10-22T06:03:10.454Z,6.39
2022-10-22T06:05:41.448Z,6.53
2022-10-22T06:08:41.171Z,6.55
2022-10-22T06:11:25.662Z,6.47
2022-10-22T06:14:05.858Z,6.47
2022-10-22T06:16:36.759Z,6.60
2022-10-22T06:19:06.725Z,6.56
2022-10-22T06:21:41.044Z,6.55
2022-10-22T06:24:11.737Z,6.75
2022-10-22T06:26:49.461Z,6.60
2022-10-22T06:29:16.864Z,6.66
2022-10-22T06:31:48.147Z,6.88
2022-10-22T06:34:19.122Z,6.85
2022-10-22T06:36:50.311Z,6.84
2022-10-22T06:39:18.519Z,6.85
2022-10-22T06:42:59.412Z,7.07
2022-10-22T06:45:33.295Z,6.90
2022-10-22T06:48:03.957Z,6.89
2022-10-22T06:50:34.700Z,6.97
2022-10-22T06:53:12.719Z,7.05
2022-10-22T06:56:23.255Z,6.80
2022-10-22T06:58:57.989Z,6.95
2022-10-22T07:01:35.593Z,6.81
2022-10-22T07:04:19.690Z,6.91
2022-10-22T07:10:30.704Z,7.06
2022-10-22T07:13:00.597Z,7.10
2022-10-22T07:15:30.540Z,7.29
2022-10-22T07:17:59.403Z,7.17
2022-10-22T07:20:49.084Z,7.33
2022-10-22T07:23:19.946Z,7.18
2022-10-22T07:28:30.158Z,7.01
2022-10-22T07:31:21.611Z,7.09
2022-10-22T07:37:28.757Z,7.06
2022-10-22T07:40:16.739Z,7.16
2022-10-22T07:43:26.991Z,7.34
2022-10-22T07:46:24.185Z,7.55
2022-10-22T07:48:57.150Z,7.56
2022-10-22T07:51:29.675Z,7.57
2022-10-22T07:54:01.716Z,7.83
2022-10-22T07:56:33.545Z,7.71
2022-10-22T07:59:05.826Z,7.86
2022-10-22T08:01:42.252Z,7.71
2022-10-22T08:04:14.391Z,7.49
2022-10-22T08:06:47.286Z,7.33
2022-10-22T08:09:18.361Z,7.41
2022-10-22T08:11:49.344Z,7.40
2022-10-22T08:14:18.284Z,7.16
2022-10-22T08:16:46.792Z,7.31
2022-10-22T08:19:32.775Z,7.05
2022-10-22T08:22:13.471Z,7.14
2022-10-22T08:24:49.317Z,7.24
2022-10-22T08:27:17.181Z,7.22
2022-10-22T08:30:16.673Z,7.44
2022-10-22T08:33:28.173Z,7.43
2022-10-22T08:35:58.175Z,7.30
2022-10-22T08:38:28.414Z,7.40
2022-10-22T08:41:08.643Z,7.37
2022-10-22T08:44:00.944Z,7.47
2022-10-22T08:46:43.598Z,7.44
2022-10-22T08:49:23.690Z,7.38
2022-10-22T08:52:08.929Z,7.44
2022-10-22T08:54:57.552Z,7.38
2022-10-22T08:57:52.461Z,7.43
2022-10-22T09:00:38.958Z,7.35
2022-10-22T09:03:15.092Z,7.34
2022-10-22T09:06:14.260Z,7.28
2022-10-22T09:08:44.433Z,7.25
2022-10-22T09:11:19.500Z,7.29
2022-10-22T09:13:48.316Z,7.32
2022-10-22T09:16:18.295Z,7.51
2022-10-22T09:19:03.687Z,7.46
2022-10-22T09:21:39.635Z,7.34
2022-10-22T09:24:44.882Z,7.21
2022-10-22T09:27:32.009Z,7.28
2022-10-22T09:39:01.698Z,7.10
2022-10-22T10:38:29.872Z,7.48
2022-10-22T10:42:50.049Z,7.57
2022-10-22T11:13:05.600Z,7.39
2022-10-22T11:15:45.303Z,7.50
2022-10-22T11:20:25.928Z,7.65
2022-10-22T11:23:18.094Z,7.50
2022-10-22T11:25:28.871Z,7.57
2022-10-22T11:32:30.675Z,7.50
2022-10-22T11:38:51.430Z,7.38
2022-10-22T11:42:06.647Z,7.33
2022-10-22T11:49:55.881Z,7.59
2022-10-22T11:52:53.055Z,7.69
2022-10-22T11:57:15.451Z,7.39
2022-10-22T12:00:33.856Z,7.60
2022-10-22T12:08:03.850Z,7.44
2022-10-22T12:20:07.149Z,7.62
2022-10-22T12:38:19.879Z,7.31
2022-10-22T12:41:05.352Z,7.26
2022-10-22T12:43:35.648Z,7.38
2022-10-22T12:46:11.149Z,7.31
2022-10-22T12:49:03.630Z,7.26
2022-10-22T12:51:55.566Z,7.28
2022-10-22T12:55:02.786Z,7.36
2022-10-22T12:57:36.456Z,7.30
2022-10-22T13:00:04.339Z,7.51
2022-10-22T13:02:31.914Z,7.30
2022-10-22T13:05:27.477Z,7.24
2022-10-22T13:09:02.408Z,7.20
2022-10-22T13:11:48.918Z,7.21
2022-10-22T13:14:35.642Z,6.87
2022-10-22T13:18:06.682Z,6.95
2022-10-22T13:22:14.199Z,6.78
2022-10-22T19:48:38.335Z,6.08
2022-10-22T19:51:10.929Z,6.10
2022-10-22T19:53:45.184Z,5.96
2022-10-22T19:56:30.390Z,5.94
2022-10-22T19:58:59.643Z,6.05
2022-10-22T20:01:29.603Z,6.12
2022-10-22T20:03:58.334Z,6.14
2022-10-22T20:06:26.515Z,6.01
2022-10-22T20:08:56.212Z,6.22
2022-10-22T20:11:27.733Z,6.25
2022-10-22T20:13:58.360Z,6.05
2022-10-22T20:16:31.075Z,6.15
2022-10-22T20:19:04.976Z,6.06
2022-10-22T20:21:35.413Z,6.11
2022-10-22T20:24:05.320Z,6.06
2022-10-22T20:26:32.852Z,6.03
2022-10-22T20:29:03.158Z,5.95
2022-10-22T20:31:31.439Z,5.96
2022-10-22T20:34:02.824Z,5.94
2022-10-22T20:36:32.210Z,6.12
2022-10-22T20:39:02.656Z,6.05
2022-10-22T20:41:36.434Z,6.12
2022-10-22T20:44:06.837Z,5.93
2022-10-22T20:46:35.112Z,6.16
2022-10-22T20:49:06.491Z,6.14
2022-10-22T20:51:47.200Z,6.06
2022-10-22T20:54:23.249Z,6.15
2022-10-22T20:56:59.396Z,6.08
2022-10-22T20:59:35.241Z,5.93
2022-10-22T21:02:13.854Z,6.14
2022-10-22T21:05:02.038Z,5.97
2022-10-22T21:07:29.718Z,6.07
2022-10-22T21:10:06.851Z,6.15
2022-10-22T21:16:26.001Z,6.18
2022-10-22T21:19:01.800Z,5.97
2022-10-22T21:21:30.776Z,6.02
2022-10-22T21:23:58.331Z,6.20
2022-10-22T21:26:28.447Z,6.18
2022-10-22T21:29:00.451Z,6.08
2022-10-22T21:31:28.220Z,6.35
2022-10-22T21:33:59.181Z,6.59
2022-10-22T21:36:26.928Z,6.55
2022-10-22T21:38:55.771Z,6.66
2022-10-22T21:41:55.292Z,6.69
2022-10-22T21:44:22.726Z,6.41
2022-10-22T21:46:59.086Z,6.22
2022-10-22T21:49:29.284Z,6.25
2022-10-22T21:52:01.018Z,6.13
2022-10-22T21:54:37.715Z,6.18
2022-10-22T21:57:13.028Z,6.02
2022-10-22T21:59:50.180Z,6.03
2022-10-22T22:02:22.359Z,5.99
2022-10-22T22:04:56.136Z,6.06
2022-10-22T22:07:23.869Z,6.07
2022-10-22T22:09:54.402Z,5.99
2022-10-22T22:12:25.681Z,6.13
2022-10-22T22:14:56.752Z,5.93
2022-10-22T22:17:29.172Z,6.04
2022-10-22T22:19:56.995Z,6.04
2022-10-22T22:22:26.649Z,5.96
2022-10-22T22:24:57.104Z,5.92
2022-10-22T22:27:35.714Z,6.04
2022-10-22T22:30:04.311Z,6.00
2022-10-22T22:33:32.281Z,6.13
2022-10-22T22:36:05.802Z,5.89
2022-10-22T22:38:35.588Z,5.96
2022-10-22T22:41:05.615Z,6.00
2022-10-22T22:43:33.568Z,5.99
2022-10-22T22:46:08.016Z,5.94
2022-10-22T22:48:40.899Z,5.96
2022-10-22T22:51:08.801Z,6.00
2022-10-22T22:53:39.342Z,5.88
2022-10-22T22:56:15.652Z,6.07
2022-10-22T22:58:47.316Z,6.00
2022-10-22T23:01:31.302Z,6.13
2022-10-22T23:04:27.039Z,5.98
2022-10-22T23:07:03.682Z,5.91
2022-10-22T23:09:33.737Z,5.95
2022-10-22T23:13:24.711Z,6.15
2022-10-22T23:15:54.560Z,6.00
2022-10-22T23:18:24.822Z,5.97
2022-10-22T23:20:56.302Z,5.97
2022-10-22T23:23:24.891Z,5.91
2022-10-22T23:28:27.135Z,6.08
2022-10-22T23:31:06.618Z,6.08
2022-10-22T23:33:36.489Z,6.04
2022-10-22T23:36:07.119Z,5.81
2022-10-22T23:38:46.244Z,5.71
2022-10-22T23:41:17.214Z,5.98
2022-10-22T23:43:45.038Z,5.78
2022-10-22T23:46:18.697Z,6.05
2022-10-22T23:48:51.076Z,5.80
2022-10-22T23:51:25.125Z,5.83
2022-10-22T23:54:02.205Z,6.03
2022-10-22T23:56:32.633Z,5.98
2022-10-22T23:59:02.576Z,5.83
